MPTO/PTY METAR and TAF weather

Enter ICAO airport designator
Station Type Date Time Source
MPTO METAR 2019/11/18 14:00 UTC NOAA

MPTO 181400Z 19004KT 9999 FEW020 28/24 Q1010 NOSIG


Station Type Date Time Source
MPTO Decoded METAR 2019/11/18 14:00 UTC NOAA

Tocumen, Panama (MPTO) 09-03N 079-22W
Nov 18, 2019 - 09:00 AM EST / 2019.11.18 1400 UTC
Wind: from the S (190 degrees) at 5 MPH (4 KT):0
Visibility: greater than 7 mile(s):0
Sky conditions: mostly clear
Temperature: 82 F (28 C)
Dew Point: 75 F (24 C)
Relative Humidity: 78%
Pressure (altimeter): 29.83 in. Hg (1010 hPa)
ob: MPTO 181400Z 19004KT 9999 FEW020 28/24 Q1010 NOSIG
cycle: 14

Station Type Date Time Source
MPTO TAF 2019/11/18 12:21 UTC NOAA

TAF MPTO 181100Z 1812/1918 30006KT 9999 SCT018
TEMPO 1817/1819 18006KT 6000 TSRA SCT015CB SCT090
BECMG 1820/1822 NSW
BECMG 1906/1910 00000KT FEW018

Example: see airport list